Terminal Aerodrome Forecast
Issued by NWS Raleigh/Durham, NC

Home | Current Version | Previous Version | Text Only | Print | Product List | Glossary On
Versions: 1 2 3 4 5 6 7 8 9 10 11 12 13 14 15 16 17 18 19 20 21 22 23 24 25 26
000
FTUS42 KRAH 311948 AAA
TAFFAY
TAF AMD
KFAY 311948Z 3120/0118 04009KT P6SM VCSH SCT035 BKN060
      TEMPO 3120/3124 2SM SHRA BR SCT015 BKN025
     FM010800 VRB03KT 4SM BR BKN007
      TEMPO 0108/0112 1SM BR BKN005
     FM011300 06008KT P6SM SCT035 BKN050=

USA.gov is the U.S. government's official web portal to all federal, state and local government web resources and services.